createdAt,value
2018-11-20T00:00:31.321Z,67.19
2018-11-20T00:02:31.233Z,67.07
2018-11-20T00:03:31.263Z,66.91
2018-11-20T00:04:31.602Z,67.16
2018-11-20T00:05:31.377Z,67.16
2018-11-20T00:06:31.415Z,66.87
2018-11-20T00:07:31.391Z,66.87
2018-11-20T00:08:31.472Z,67.16
2018-11-20T00:09:31.451Z,67.07
2018-11-20T00:10:31.547Z,66.87
2018-11-20T00:11:31.813Z,66.87
2018-11-20T00:12:31.595Z,66.87
2018-11-20T00:13:31.572Z,67.10
2018-11-20T00:14:31.607Z,66.87
2018-11-20T00:15:31.637Z,66.87
2018-11-20T00:16:31.718Z,67.07
2018-11-20T00:17:31.751Z,66.87
2018-11-20T00:18:32.029Z,66.87
2018-11-20T00:19:31.814Z,66.87
2018-11-20T00:20:31.843Z,67.16
2018-11-20T00:21:31.819Z,67.07
2018-11-20T00:22:31.858Z,67.25
2018-11-20T00:23:31.893Z,67.16
2018-11-20T00:24:31.966Z,67.25
2018-11-20T00:26:32.331Z,67.16
2018-11-20T00:27:32.163Z,66.87
2018-11-20T00:28:32.040Z,66.87
2018-11-20T00:29:32.073Z,66.87
2018-11-20T00:30:32.151Z,66.97
2018-11-20T00:31:32.189Z,67.35
2018-11-20T00:32:32.217Z,67.07
2018-11-20T00:33:32.498Z,67.45
2018-11-20T00:34:32.227Z,67.35
2018-11-20T00:35:32.330Z,67.07
2018-11-20T00:36:32.347Z,67.35
2018-11-20T00:37:32.321Z,67.35
2018-11-20T00:38:32.400Z,66.97
2018-11-20T00:39:32.433Z,67.35
2018-11-20T00:40:32.764Z,67.35
2018-11-20T00:41:32.491Z,67.45
2018-11-20T00:42:32.760Z,67.07
2018-11-20T00:43:32.564Z,67.25
2018-11-20T00:44:32.536Z,66.97
2018-11-20T00:45:32.619Z,66.97
2018-11-20T00:46:32.598Z,67.45
2018-11-20T00:47:32.930Z,66.97
2018-11-20T00:48:32.712Z,67.16
2018-11-20T00:49:32.690Z,66.97
2018-11-20T00:50:32.773Z,67.45
2018-11-20T00:51:32.758Z,66.77
2018-11-20T00:52:32.836Z,66.87
2018-11-20T00:53:32.874Z,66.97
2018-11-20T00:54:33.711Z,67.25
2018-11-20T00:55:32.938Z,66.97
2018-11-20T00:57:32.999Z,66.97
2018-11-20T00:58:32.974Z,66.97
2018-11-20T01:00:33.339Z,66.87
2018-11-20T01:01:33.113Z,67.07
2018-11-20T01:02:33.102Z,66.97
2018-11-20T01:03:33.129Z,66.87
2018-11-20T01:04:33.213Z,67.45
2018-11-20T01:05:33.317Z,66.97
2018-11-20T01:06:33.518Z,66.97
2018-11-20T01:07:33.252Z,67.25
2018-11-20T01:08:33.331Z,67.35
2018-11-20T01:09:33.314Z,67.35
2018-11-20T01:10:33.345Z,67.16
2018-11-20T01:11:33.427Z,67.16
2018-11-20T01:12:33.710Z,67.16
2018-11-20T01:13:33.436Z,67.35
2018-11-20T01:14:33.520Z,67.35
2018-11-20T01:15:33.551Z,67.07
2018-11-20T01:16:33.586Z,67.25
2018-11-20T01:17:33.611Z,67.16
2018-11-20T01:18:33.643Z,67.35
2018-11-20T01:19:33.935Z,67.25
2018-11-20T01:20:33.703Z,67.16
2018-11-20T01:21:33.732Z,67.16
2018-11-20T01:22:33.714Z,67.07
2018-11-20T01:23:33.749Z,67.16
2018-11-20T01:24:33.831Z,67.25
2018-11-20T01:25:33.808Z,67.35
2018-11-20T01:26:34.139Z,67.35
2018-11-20T01:27:33.875Z,67.07
2018-11-20T01:29:33.989Z,67.35
2018-11-20T01:30:33.966Z,67.16
2018-11-20T01:31:34.047Z,67.07
2018-11-20T01:32:34.026Z,67.16
2018-11-20T01:33:34.415Z,67.35
2018-11-20T01:34:34.088Z,67.35
2018-11-20T01:35:34.168Z,67.35
2018-11-20T01:36:34.204Z,67.35
2018-11-20T01:37:34.229Z,67.07
2018-11-20T01:38:34.259Z,67.35
2018-11-20T01:39:34.241Z,67.35
2018-11-20T01:41:34.638Z,67.16
2018-11-20T01:42:34.335Z,67.07
2018-11-20T01:43:34.417Z,67.16
2018-11-20T01:45:34.428Z,67.16
2018-11-20T01:46:34.458Z,67.16
2018-11-20T01:47:34.544Z,67.16
2018-11-20T01:48:34.822Z,67.16
2018-11-20T01:49:34.550Z,67.16
2018-11-20T01:50:34.633Z,67.07
2018-11-20T01:51:34.687Z,67.45
2018-11-20T01:52:34.695Z,66.97
2018-11-20T01:53:34.727Z,67.07
2018-11-20T01:54:34.708Z,67.16
2018-11-20T01:55:35.041Z,67.07
2018-11-20T01:56:34.820Z,67.64
2018-11-20T01:57:34.801Z,67.64
2018-11-20T01:58:34.891Z,67.54
2018-11-20T01:59:34.887Z,67.64
2018-11-20T02:00:34.942Z,67.64
2018-11-20T02:01:35.276Z,67.74
2018-11-20T02:02:35.255Z,67.74
2018-11-20T02:03:34.984Z,67.64
2018-11-20T02:04:35.078Z,67.64
2018-11-20T02:05:35.101Z,67.54
2018-11-20T02:06:35.078Z,67.64
2018-11-20T02:07:35.112Z,67.35
2018-11-20T02:08:35.160Z,67.35
2018-11-20T02:09:35.485Z,67.45
2018-11-20T02:10:35.216Z,67.35
2018-11-20T02:11:35.285Z,67.45
2018-11-20T02:12:35.306Z,67.35
2018-11-20T02:13:35.354Z,67.45
2018-11-20T02:14:35.341Z,67.74
2018-11-20T02:15:35.421Z,67.45
2018-11-20T02:16:35.701Z,67.25
2018-11-20T02:17:35.437Z,67.35
2018-11-20T02:18:35.499Z,67.35
2018-11-20T02:19:35.531Z,67.64
2018-11-20T02:20:35.564Z,67.35
2018-11-20T02:21:35.548Z,67.45
2018-11-20T02:22:35.588Z,67.45
2018-11-20T02:23:36.008Z,67.45
2018-11-20T02:25:35.717Z,67.45
2018-11-20T02:26:35.704Z,67.25
2018-11-20T02:27:35.730Z,67.35
2018-11-20T02:28:35.813Z,67.25
2018-11-20T02:29:35.840Z,67.25
2018-11-20T02:30:36.224Z,67.25
2018-11-20T02:31:35.904Z,67.35
2018-11-20T02:32:35.944Z,67.35
2018-11-20T02:33:35.965Z,67.45
2018-11-20T02:34:35.947Z,67.35
2018-11-20T02:35:36.026Z,67.35
2018-11-20T02:36:36.077Z,67.54
2018-11-20T02:37:36.340Z,67.35
2018-11-20T02:38:36.124Z,67.45
2018-11-20T02:39:36.101Z,67.45
2018-11-20T02:40:36.216Z,67.54
2018-11-20T02:41:36.161Z,67.45
2018-11-20T02:42:36.231Z,67.45
2018-11-20T02:43:36.227Z,67.45
2018-11-20T02:44:36.563Z,67.74
2018-11-20T02:45:36.289Z,67.54
2018-11-20T02:46:36.367Z,67.74
2018-11-20T02:47:36.420Z,67.74
2018-11-20T02:48:36.444Z,67.64
2018-11-20T02:49:36.420Z,67.45
2018-11-20T02:50:36.455Z,67.45
2018-11-20T02:51:36.960Z,67.54
2018-11-20T02:52:36.502Z,67.45
2018-11-20T02:53:36.593Z,67.54
2018-11-20T02:54:36.583Z,67.45
2018-11-20T02:55:36.712Z,67.35
2018-11-20T02:56:36.679Z,67.54
2018-11-20T02:57:36.662Z,67.64
2018-11-20T02:59:37.023Z,67.64
2018-11-20T03:00:36.801Z,67.74
2018-11-20T03:01:36.794Z,67.83
2018-11-20T03:02:36.867Z,67.83
2018-11-20T03:03:36.960Z,67.64
2018-11-20T03:05:36.958Z,67.45
2018-11-20T03:06:37.237Z,67.45
2018-11-20T03:07:36.968Z,67.83
2018-11-20T03:08:37.048Z,67.35
2018-11-20T03:10:37.111Z,67.64
2018-11-20T03:11:37.095Z,67.64
2018-11-20T03:12:37.177Z,67.74
2018-11-20T03:13:37.453Z,67.64
2018-11-20T03:14:37.243Z,67.64
2018-11-20T03:15:37.265Z,67.74
2018-11-20T03:16:37.250Z,67.74
2018-11-20T03:17:37.330Z,67.64
2018-11-20T03:18:37.357Z,67.83
2018-11-20T03:19:37.340Z,67.45
2018-11-20T03:20:37.836Z,67.45
2018-11-20T03:21:37.471Z,67.45
2018-11-20T03:22:37.494Z,67.64
2018-11-20T03:23:37.521Z,67.64
2018-11-20T03:24:37.554Z,67.64
2018-11-20T03:25:37.524Z,67.83
2018-11-20T03:26:37.563Z,67.83
2018-11-20T03:27:37.889Z,67.64
2018-11-20T03:28:37.684Z,67.74
2018-11-20T03:29:37.655Z,67.64
2018-11-20T03:30:37.736Z,67.45
2018-11-20T03:31:37.711Z,67.35
2018-11-20T03:32:37.742Z,67.64
2018-11-20T03:33:37.839Z,67.74
2018-11-20T03:34:38.113Z,67.74
2018-11-20T03:35:37.850Z,67.64
2018-11-20T03:36:37.916Z,67.74
2018-11-20T03:37:37.893Z,67.45
2018-11-20T03:38:37.982Z,67.64
2018-11-20T03:39:37.959Z,67.74
2018-11-20T03:40:38.037Z,67.64
2018-11-20T03:41:38.439Z,67.74
2018-11-20T03:42:38.106Z,67.64
2018-11-20T03:43:38.130Z,67.64
2018-11-20T03:44:38.133Z,67.25
2018-11-20T03:45:38.145Z,67.74
2018-11-20T03:46:38.228Z,67.74
2018-11-20T03:47:38.536Z,67.74
2018-11-20T03:48:38.286Z,67.74
2018-11-20T03:49:38.278Z,67.64
2018-11-20T03:50:38.321Z,67.54
2018-11-20T03:51:38.337Z,67.35
2018-11-20T03:52:38.413Z,67.07
2018-11-20T03:53:38.692Z,67.16
2018-11-20T03:54:38.502Z,67.35
2018-11-20T03:55:38.452Z,67.07
2018-11-20T03:56:38.532Z,67.35
2018-11-20T03:57:38.568Z,67.25
2018-11-20T03:58:38.598Z,67.16
2018-11-20T03:59:38.953Z,67.16
2018-11-20T04:00:38.660Z,67.35
2018-11-20T04:01:38.693Z,67.07
2018-11-20T04:04:38.787Z,67.16
2018-11-20T04:05:38.780Z,67.16
2018-11-20T04:06:39.098Z,67.16
2018-11-20T04:07:38.833Z,67.35
2018-11-20T04:08:38.905Z,67.16
2018-11-20T04:09:38.943Z,67.16
2018-11-20T04:10:38.931Z,67.35
2018-11-20T04:11:38.952Z,67.25
2018-11-20T04:12:38.992Z,67.35
2018-11-20T04:13:39.359Z,67.07
2018-11-20T04:14:39.057Z,67.07
2018-11-20T04:15:39.122Z,67.07
2018-11-20T04:16:39.326Z,67.35
2018-11-20T04:17:39.151Z,67.35
2018-11-20T04:18:39.220Z,67.07
2018-11-20T04:20:39.278Z,67.25
2018-11-20T04:21:39.571Z,67.16
2018-11-20T04:22:39.338Z,67.16
2018-11-20T04:23:39.373Z,67.25
2018-11-20T04:24:39.403Z,67.35
2018-11-20T04:25:39.430Z,67.25
2018-11-20T04:26:39.465Z,67.35
2018-11-20T04:28:39.475Z,67.16
2018-11-20T04:29:39.860Z,67.35
2018-11-20T04:30:39.601Z,67.16
2018-11-20T04:31:39.573Z,67.35
2018-11-20T04:32:39.665Z,67.25
2018-11-20T04:33:39.638Z,67.35
2018-11-20T04:34:39.711Z,67.16
2018-11-20T04:35:40.071Z,67.25
2018-11-20T04:36:39.772Z,67.16
2018-11-20T04:37:39.751Z,67.35
2018-11-20T04:39:39.828Z,67.25
2018-11-20T04:40:39.906Z,67.16
2018-11-20T04:41:39.948Z,67.35
2018-11-20T04:42:40.210Z,67.35
2018-11-20T04:43:40.053Z,67.35
2018-11-20T04:44:40.040Z,67.16
2018-11-20T04:45:40.011Z,67.35
2018-11-20T04:46:40.083Z,67.35
2018-11-20T04:47:40.164Z,67.35
2018-11-20T04:48:40.154Z,67.35
2018-11-20T04:49:40.485Z,67.35
2018-11-20T04:50:40.164Z,67.25
2018-11-20T04:51:40.209Z,67.35
2018-11-20T04:52:40.377Z,67.25
2018-11-20T04:53:40.297Z,67.25
2018-11-20T04:54:40.332Z,67.35
2018-11-20T04:55:40.378Z,67.35
2018-11-20T04:56:40.660Z,67.35
2018-11-20T04:57:40.423Z,67.07
2018-11-20T04:58:40.464Z,67.35
2018-11-20T04:59:40.434Z,67.35
2018-11-20T05:00:40.517Z,67.35
2018-11-20T05:01:40.500Z,66.97
2018-11-20T05:02:40.533Z,67.07
2018-11-20T05:03:40.857Z,66.97
2018-11-20T05:04:40.639Z,67.07
2018-11-20T05:05:40.669Z,67.45
2018-11-20T05:06:40.785Z,67.45
2018-11-20T05:07:40.784Z,66.97
2018-11-20T05:08:40.767Z,67.16
2018-11-20T05:09:40.811Z,67.07
2018-11-20T05:10:41.077Z,67.07
2018-11-20T05:11:40.813Z,67.25
2018-11-20T05:12:40.871Z,67.25
2018-11-20T05:13:40.919Z,67.25
2018-11-20T05:14:40.896Z,67.35
2018-11-20T05:15:40.994Z,67.35
2018-11-20T05:16:41.010Z,67.25
2018-11-20T05:17:41.339Z,67.25
2018-11-20T05:18:41.020Z,67.07
2018-11-20T05:19:41.052Z,67.07
2018-11-20T05:20:41.137Z,67.16
2018-11-20T05:21:41.163Z,66.97
2018-11-20T05:22:41.162Z,67.07
2018-11-20T05:23:41.229Z,67.16
2018-11-20T05:24:41.507Z,66.97
2018-11-20T05:25:41.245Z,67.25
2018-11-20T05:26:41.270Z,67.35
2018-11-20T05:27:41.381Z,67.25
2018-11-20T05:28:41.382Z,67.35
2018-11-20T05:29:41.412Z,67.16
2018-11-20T05:30:41.444Z,67.25
2018-11-20T05:31:41.731Z,67.35
2018-11-20T05:32:41.507Z,67.07
2018-11-20T05:33:41.540Z,67.16
2018-11-20T05:34:41.518Z,67.25
2018-11-20T05:35:41.550Z,67.07
2018-11-20T05:36:41.629Z,67.25
2018-11-20T05:37:41.612Z,67.16
2018-11-20T05:38:41.992Z,67.16
2018-11-20T05:39:41.721Z,67.25
2018-11-20T05:40:41.753Z,67.16
2018-11-20T05:41:41.791Z,67.16
2018-11-20T05:42:41.817Z,67.25
2018-11-20T05:43:41.855Z,67.16
2018-11-20T05:44:41.888Z,67.35
2018-11-20T05:45:42.169Z,67.07
2018-11-20T05:47:41.969Z,67.35
2018-11-20T05:48:41.962Z,67.35
2018-11-20T05:49:41.982Z,67.35
2018-11-20T05:50:42.172Z,67.35
2018-11-20T05:51:42.098Z,67.35
2018-11-20T05:52:42.428Z,67.35
2018-11-20T05:53:42.103Z,67.35
2018-11-20T05:54:42.152Z,67.35
2018-11-20T05:55:42.216Z,67.07
2018-11-20T05:56:42.294Z,66.97
2018-11-20T05:57:42.332Z,67.35
2018-11-20T05:58:42.558Z,66.97
2018-11-20T05:59:42.291Z,67.07
2018-11-20T06:00:42.375Z,66.97
2018-11-20T06:01:42.407Z,66.97
2018-11-20T06:02:42.437Z,66.97
2018-11-20T06:03:42.417Z,66.87
2018-11-20T06:04:42.805Z,66.87
2018-11-20T06:06:42.561Z,67.16
2018-11-20T06:07:42.591Z,67.16
2018-11-20T06:08:42.628Z,67.16
2018-11-20T06:09:42.673Z,66.97
2018-11-20T06:10:42.631Z,66.97
2018-11-20T06:11:42.676Z,67.35
2018-11-20T06:12:42.777Z,67.07
2018-11-20T06:14:42.804Z,67.25
2018-11-20T06:15:42.786Z,67.35
2018-11-20T06:16:43.178Z,67.35
2018-11-20T06:17:42.858Z,67.07
2018-11-20T06:18:42.938Z,67.35
2018-11-20T06:19:42.969Z,66.97
2018-11-20T06:20:42.994Z,67.07
2018-11-20T06:21:42.979Z,67.25
2018-11-20T06:22:43.010Z,67.16
2018-11-20T06:24:43.420Z,67.35
2018-11-20T06:25:43.143Z,67.16
2018-11-20T06:26:43.148Z,66.97
2018-11-20T06:27:43.162Z,67.16
2018-11-20T06:28:43.269Z,66.87
2018-11-20T06:29:43.292Z,66.87
2018-11-20T06:30:43.431Z,66.87
2018-11-20T06:31:43.584Z,66.87
2018-11-20T06:32:43.434Z,67.16
2018-11-20T06:33:43.341Z,66.77
2018-11-20T06:34:43.525Z,67.25
2018-11-20T06:35:43.455Z,67.16
2018-11-20T06:36:43.510Z,67.25
2018-11-20T06:37:43.474Z,67.35
2018-11-20T06:38:43.806Z,67.16
2018-11-20T06:40:43.628Z,67.35
2018-11-20T06:41:43.642Z,67.25
2018-11-20T06:42:43.621Z,67.07
2018-11-20T06:43:43.661Z,67.64
2018-11-20T06:45:43.768Z,67.74
2018-11-20T06:47:44.079Z,67.35
2018-11-20T06:48:43.860Z,67.25
2018-11-20T06:49:43.890Z,67.25
2018-11-20T06:50:43.879Z,67.35
2018-11-20T06:51:44.003Z,67.35
2018-11-20T06:52:44.050Z,67.07
2018-11-20T06:53:44.367Z,66.87
2018-11-20T06:54:44.046Z,67.07
2018-11-20T06:55:44.102Z,67.07
2018-11-20T06:56:44.107Z,66.77
2018-11-20T06:57:44.092Z,67.07
2018-11-20T06:59:44.216Z,67.07
2018-11-20T07:00:44.530Z,66.97
2018-11-20T07:01:44.222Z,66.77
2018-11-20T07:02:44.243Z,66.97
2018-11-20T07:03:44.324Z,66.97
2018-11-20T07:04:44.376Z,66.87
2018-11-20T07:05:44.331Z,66.87
2018-11-20T07:06:44.367Z,67.16
2018-11-20T07:07:44.943Z,67.35
2018-11-20T07:08:44.503Z,66.97
2018-11-20T07:09:44.508Z,67.35
2018-11-20T07:10:44.493Z,67.35
2018-11-20T07:11:44.646Z,67.25
2018-11-20T07:13:44.632Z,67.16
2018-11-20T07:14:44.927Z,67.07
2018-11-20T07:15:44.892Z,67.35
2018-11-20T07:16:44.723Z,67.07
2018-11-20T07:17:44.703Z,67.45
2018-11-20T07:19:44.824Z,67.16
2018-11-20T07:20:44.850Z,66.87
2018-11-20T07:21:45.131Z,67.16
2018-11-20T07:22:44.946Z,67.07
2018-11-20T07:23:44.942Z,66.97
2018-11-20T07:24:45.022Z,66.77
2018-11-20T07:25:44.952Z,66.87
2018-11-20T07:26:44.999Z,66.87
2018-11-20T07:27:45.021Z,66.87
2018-11-20T07:28:45.117Z,66.87
2018-11-20T07:29:45.209Z,66.97
2018-11-20T07:30:45.178Z,66.87
2018-11-20T07:32:45.219Z,66.87
2018-11-20T07:34:45.312Z,66.87
2018-11-20T07:35:45.564Z,66.87
2018-11-20T07:37:45.329Z,66.77
2018-11-20T07:38:45.357Z,66.68
2018-11-20T07:40:45.468Z,66.68
2018-11-20T07:42:45.531Z,66.49
2018-11-20T07:43:45.931Z,66.77
2018-11-20T07:44:45.543Z,66.39
2018-11-20T07:45:45.632Z,66.30
2018-11-20T07:46:45.652Z,66.58
2018-11-20T07:47:45.636Z,66.30
2018-11-20T07:48:45.741Z,66.49
2018-11-20T07:50:46.082Z,66.39
2018-11-20T07:51:45.763Z,66.58
2018-11-20T07:52:45.844Z,66.58
2018-11-20T07:53:45.872Z,66.39
2018-11-20T07:55:45.944Z,66.39
2018-11-20T07:57:45.944Z,66.58
2018-11-20T07:58:46.277Z,66.58
2018-11-20T07:59:46.010Z,66.58
2018-11-20T08:00:46.087Z,66.58
2018-11-20T08:01:46.119Z,66.58
2018-11-20T08:02:46.102Z,66.58
2018-11-20T08:03:46.181Z,66.58
2018-11-20T08:04:46.162Z,66.58
2018-11-20T08:05:46.243Z,66.39
2018-11-20T08:06:46.225Z,66.68
2018-11-20T08:07:46.253Z,66.58
2018-11-20T08:08:46.333Z,66.68
2018-11-20T08:09:46.432Z,66.58
2018-11-20T08:10:46.394Z,66.68
2018-11-20T08:11:46.679Z,66.58
2018-11-20T08:12:46.457Z,66.87
2018-11-20T08:13:46.441Z,66.87
2018-11-20T08:14:46.522Z,66.30
2018-11-20T08:15:46.595Z,66.30
2018-11-20T08:16:46.584Z,66.68
2018-11-20T08:17:46.663Z,66.68
2018-11-20T08:21:46.737Z,66.68
2018-11-20T08:22:46.721Z,66.30
2018-11-20T08:23:46.802Z,66.49
2018-11-20T08:24:47.080Z,66.58
2018-11-20T08:25:46.888Z,66.20
2018-11-20T08:27:46.943Z,66.00
2018-11-20T08:28:47.039Z,66.10
2018-11-20T08:29:47.054Z,66.20
2018-11-20T08:30:47.036Z,66.20
2018-11-20T08:32:47.134Z,66.00
2018-11-20T08:33:47.197Z,66.20
2018-11-20T08:34:47.090Z,66.20
2018-11-20T08:35:47.171Z,66.30
2018-11-20T08:36:47.505Z,66.10
2018-11-20T08:37:47.236Z,66.20
2018-11-20T08:38:47.218Z,65.81
2018-11-20T08:39:47.244Z,65.62
2018-11-20T08:40:47.327Z,65.72
2018-11-20T08:41:47.307Z,65.72
2018-11-20T08:43:47.721Z,65.91
2018-11-20T08:45:47.489Z,65.72
2018-11-20T08:46:47.517Z,65.72
2018-11-20T08:47:47.582Z,65.91
2018-11-20T08:48:47.580Z,66.00
2018-11-20T08:49:47.572Z,65.91
2018-11-20T08:50:47.588Z,65.91
2018-11-20T08:51:47.671Z,65.81
2018-11-20T08:52:47.685Z,65.81
2018-11-20T08:53:47.830Z,65.91
2018-11-20T08:57:47.866Z,65.91
2018-11-20T08:58:48.145Z,65.62
2018-11-20T08:59:47.871Z,65.72
2018-11-20T09:03:48.048Z,65.84
2018-11-20T09:05:48.405Z,65.81
2018-11-20T09:08:48.199Z,65.91
2018-11-20T09:09:48.203Z,65.81
2018-11-20T09:10:48.260Z,65.72
2018-11-20T09:11:48.546Z,65.91
2018-11-20T09:12:48.322Z,66.10
2018-11-20T09:15:48.419Z,66.00
2018-11-20T09:22:48.641Z,66.04
2018-11-20T09:26:48.714Z,65.56
2018-11-20T09:27:48.905Z,65.72
2018-11-20T09:28:48.832Z,65.53
2018-11-20T09:31:48.872Z,65.14
2018-11-20T09:32:48.948Z,65.14
2018-11-20T09:33:49.169Z,65.27
2018-11-20T09:34:49.042Z,65.23
2018-11-20T09:35:49.289Z,65.43
2018-11-20T09:36:49.023Z,65.46
2018-11-20T09:38:49.141Z,65.33
2018-11-20T09:39:49.179Z,65.33
2018-11-20T09:41:49.182Z,65.23
2018-11-20T09:42:49.213Z,65.37
2018-11-20T09:44:49.342Z,65.33
2018-11-20T09:46:49.441Z,65.23
2018-11-20T09:47:49.371Z,65.66
2018-11-20T09:49:49.779Z,65.56
2018-11-20T09:50:49.458Z,65.23
2018-11-20T09:51:49.494Z,65.14
2018-11-20T09:52:49.851Z,65.27
2018-11-20T09:53:49.562Z,65.14
2018-11-20T09:54:49.634Z,65.56
2018-11-20T09:55:49.918Z,65.46
2018-11-20T09:56:49.694Z,65.46
2018-11-20T09:58:49.708Z,65.23
2018-11-20T09:59:49.798Z,65.37
2018-11-20T10:01:49.863Z,65.37
2018-11-20T10:02:50.139Z,65.08
2018-11-20T10:04:49.948Z,65.17
2018-11-20T10:06:50.060Z,64.98
2018-11-20T10:07:50.041Z,64.98
2018-11-20T10:08:50.085Z,65.27
2018-11-20T10:09:50.102Z,65.17
2018-11-20T10:10:50.133Z,65.08
2018-11-20T10:11:50.164Z,65.08
2018-11-20T10:12:50.200Z,65.08
2018-11-20T10:14:50.499Z,65.08
2018-11-20T10:15:50.237Z,64.89
2018-11-20T10:16:50.328Z,64.89
2018-11-20T10:17:50.305Z,64.98
2018-11-20T10:18:50.332Z,64.98
2018-11-20T10:19:50.419Z,64.98
2018-11-20T10:21:50.438Z,65.17
2018-11-20T10:22:50.507Z,64.79
2018-11-20T10:23:50.650Z,64.89
2018-11-20T10:24:50.678Z,64.98
2018-11-20T10:25:50.757Z,64.79
2018-11-20T10:26:50.589Z,65.27
2018-11-20T10:27:50.665Z,64.69
2018-11-20T10:29:51.132Z,64.89
2018-11-20T10:30:50.710Z,64.31
2018-11-20T10:33:50.809Z,65.17
2018-11-20T10:34:50.930Z,65.08
2018-11-20T10:35:50.914Z,64.98
2018-11-20T10:36:51.255Z,64.98
2018-11-20T10:37:50.979Z,64.89
2018-11-20T10:39:50.991Z,65.08
2018-11-20T10:41:51.058Z,64.89
2018-11-20T10:42:51.143Z,64.89
2018-11-20T10:43:51.170Z,64.79
2018-11-20T10:44:51.202Z,64.50
2018-11-20T10:45:51.185Z,64.50
2018-11-20T10:46:51.262Z,64.50
2018-11-20T10:47:51.293Z,64.79
2018-11-20T10:50:51.337Z,64.60
2018-11-20T10:51:51.366Z,64.98
2018-11-20T10:53:51.444Z,64.98
2018-11-20T10:56:51.575Z,64.79
2018-11-20T10:57:51.919Z,65.08
2018-11-20T10:59:51.681Z,64.40
2018-11-20T11:01:51.731Z,64.40
2018-11-20T11:02:51.742Z,64.40
2018-11-20T11:03:51.793Z,64.40
2018-11-20T11:04:51.874Z,64.50
2018-11-20T11:05:51.811Z,64.31
2018-11-20T11:07:52.108Z,64.34
2018-11-20T11:08:51.972Z,64.31
2018-11-20T11:10:52.023Z,64.22
2018-11-20T11:11:52.008Z,64.22
2018-11-20T11:12:52.093Z,64.12
2018-11-20T11:14:52.155Z,64.15
2018-11-20T11:15:52.480Z,64.15
2018-11-20T11:16:52.211Z,64.15
2018-11-20T11:17:52.185Z,64.05
2018-11-20T11:18:52.221Z,64.02
2018-11-20T11:20:52.463Z,64.31
2018-11-20T11:21:52.361Z,64.31
2018-11-20T11:22:52.698Z,64.22
2018-11-20T11:23:52.426Z,64.34
2018-11-20T11:24:52.407Z,64.50
2018-11-20T11:25:52.539Z,64.50
2018-11-20T11:26:52.473Z,64.50
2018-11-20T11:27:52.512Z,64.31
2018-11-20T11:29:52.578Z,64.40
2018-11-20T11:30:52.949Z,64.43
2018-11-20T11:31:52.637Z,64.43
2018-11-20T11:32:52.722Z,64.43
2018-11-20T11:33:52.688Z,64.40
2018-11-20T11:34:52.724Z,64.34
2018-11-20T11:35:52.816Z,64.43
2018-11-20T11:36:53.138Z,64.43
2018-11-20T11:37:52.978Z,64.34
2018-11-20T11:38:52.849Z,64.25
2018-11-20T11:39:52.896Z,64.25
2018-11-20T11:40:52.924Z,64.43
2018-11-20T11:41:52.997Z,64.22
2018-11-20T11:42:53.013Z,64.43
2018-11-20T11:43:53.314Z,64.05
2018-11-20T11:44:53.133Z,63.95
2018-11-20T11:45:53.119Z,64.25
2018-11-20T11:46:53.187Z,64.05
2018-11-20T11:47:53.195Z,63.95
2018-11-20T11:48:53.167Z,64.15
2018-11-20T11:50:53.277Z,63.86
2018-11-20T11:51:53.547Z,64.05
2018-11-20T11:52:53.360Z,64.05
2018-11-20T11:53:53.382Z,63.86
2018-11-20T11:54:53.474Z,64.05
2018-11-20T11:55:53.392Z,64.05
2018-11-20T11:56:53.469Z,64.15
2018-11-20T11:57:53.770Z,63.86
2018-11-20T11:58:53.486Z,63.86
2018-11-20T11:59:53.570Z,63.86
2018-11-20T12:00:53.757Z,63.67
2018-11-20T12:03:53.657Z,63.57
2018-11-20T12:04:54.014Z,63.76
2018-11-20T12:05:55.917Z,63.67
2018-11-20T12:06:53.841Z,63.57
2018-11-20T12:07:53.775Z,63.86
2018-11-20T12:08:53.858Z,63.95
2018-11-20T12:09:53.884Z,63.95
2018-11-20T12:10:53.871Z,63.38
2018-11-20T12:11:54.192Z,63.95
2018-11-20T12:12:53.990Z,63.86
2018-11-20T12:13:54.014Z,63.86
2018-11-20T12:14:54.066Z,63.48
2018-11-20T12:15:54.028Z,63.57
2018-11-20T12:16:54.105Z,63.57
2018-11-20T12:17:54.153Z,63.48
2018-11-20T12:18:56.120Z,63.48
2018-11-20T12:19:54.149Z,63.48
2018-11-20T12:21:54.341Z,63.76
2018-11-20T12:22:54.304Z,63.67
2018-11-20T12:24:54.361Z,63.86
2018-11-20T12:25:54.692Z,63.48
2018-11-20T12:26:54.367Z,63.48
2018-11-20T12:28:55.847Z,63.48
2018-11-20T12:29:55.521Z,63.38
2018-11-20T12:30:54.548Z,63.76
2018-11-20T12:31:54.539Z,63.76
2018-11-20T12:32:54.863Z,63.76
2018-11-20T12:33:54.594Z,63.76
2018-11-20T12:34:56.717Z,63.57
2018-11-20T12:36:54.690Z,63.86
2018-11-20T12:37:54.766Z,63.57
2018-11-20T12:38:54.755Z,63.57
2018-11-20T12:39:56.418Z,63.57
2018-11-20T12:40:54.874Z,63.57
2018-11-20T12:41:54.844Z,63.57
2018-11-20T12:42:54.936Z,63.76
2018-11-20T12:43:56.771Z,63.76
2018-11-20T12:44:56.675Z,63.18
2018-11-20T12:46:55.055Z,63.18
2018-11-20T12:47:55.094Z,63.28
2018-11-20T12:48:56.297Z,63.57
2018-11-20T12:49:55.097Z,63.57
2018-11-20T12:50:55.182Z,63.57
2018-11-20T12:51:55.168Z,63.57
2018-11-20T12:52:55.206Z,63.67
2018-11-20T12:53:57.794Z,63.48
2018-11-20T12:54:55.310Z,63.67
2018-11-20T12:55:55.294Z,63.67
2018-11-20T12:56:55.382Z,63.67
2018-11-20T12:57:55.358Z,63.57
2018-11-20T12:58:55.460Z,63.76
2018-11-20T12:59:55.715Z,63.76
2018-11-20T13:00:55.530Z,63.57
2018-11-20T13:01:55.589Z,63.76
2018-11-20T13:02:55.566Z,63.76
2018-11-20T13:04:55.622Z,63.67
2018-11-20T13:05:55.915Z,63.48
2018-11-20T13:06:55.693Z,63.67
2018-11-20T13:07:55.672Z,63.57
2018-11-20T13:08:55.751Z,63.67
2018-11-20T13:09:55.732Z,63.67
2018-11-20T13:10:55.779Z,63.48
2018-11-20T13:11:56.147Z,63.48
2018-11-20T13:12:56.534Z,63.86
2018-11-20T13:13:56.567Z,63.76
2018-11-20T13:14:56.605Z,63.86
2018-11-20T13:15:56.610Z,63.67
2018-11-20T13:16:56.004Z,63.76
2018-11-20T13:17:56.031Z,63.76
2018-11-20T13:18:56.365Z,63.86
2018-11-20T13:19:56.093Z,63.67
2018-11-20T13:20:56.128Z,63.76
2018-11-20T13:21:56.108Z,63.76
2018-11-20T13:22:56.189Z,63.67
2018-11-20T13:23:56.172Z,63.67
2018-11-20T13:24:58.010Z,63.76
2018-11-20T13:25:56.315Z,63.76
2018-11-20T13:26:56.307Z,63.76
2018-11-20T13:28:56.385Z,63.57
2018-11-20T13:29:56.418Z,63.76
2018-11-20T13:30:56.392Z,63.57
2018-11-20T13:31:56.724Z,63.57
2018-11-20T13:32:56.518Z,63.67
2018-11-20T13:33:57.904Z,63.57
2018-11-20T13:34:57.692Z,63.57
2018-11-20T13:35:56.554Z,63.86
2018-11-20T13:36:56.583Z,63.48
2018-11-20T13:37:56.664Z,63.67
2018-11-20T13:38:56.700Z,63.76
2018-11-20T13:39:56.678Z,63.76
2018-11-20T13:40:56.807Z,63.76
2018-11-20T13:41:56.748Z,63.86
2018-11-20T13:42:56.914Z,63.48
2018-11-20T13:43:56.808Z,63.67
2018-11-20T13:44:57.343Z,63.86
2018-11-20T13:45:56.865Z,63.57
2018-11-20T13:46:57.013Z,63.48
2018-11-20T13:47:56.934Z,63.48
2018-11-20T13:48:56.970Z,63.67
2018-11-20T13:49:56.994Z,63.48
2018-11-20T13:50:57.326Z,63.67
2018-11-20T13:51:57.118Z,63.76
2018-11-20T13:52:57.212Z,63.57
2018-11-20T13:53:57.172Z,63.67
2018-11-20T13:54:57.207Z,63.48
2018-11-20T13:56:57.217Z,63.57
2018-11-20T13:57:57.306Z,63.57
2018-11-20T13:58:57.280Z,63.48
2018-11-20T14:00:01.448Z,63.48
2018-11-20T14:00:57.394Z,63.48
2018-11-20T14:01:57.425Z,63.48
2018-11-20T14:02:57.476Z,63.67
2018-11-20T14:03:57.744Z,63.48
2018-11-20T14:04:57.472Z,63.48
2018-11-20T14:05:57.504Z,63.76
2018-11-20T14:06:57.542Z,63.64
2018-11-20T14:07:57.614Z,63.76
2018-11-20T14:08:57.647Z,63.48
2018-11-20T14:09:57.987Z,63.64
2018-11-20T14:10:57.693Z,63.45
2018-11-20T14:11:57.688Z,63.67
2018-11-20T14:12:57.816Z,63.48
2018-11-20T14:13:57.896Z,63.86
2018-11-20T14:14:57.784Z,63.67
2018-11-20T14:15:57.820Z,63.64
2018-11-20T14:16:58.151Z,63.45
2018-11-20T14:17:57.882Z,63.67
2018-11-20T14:18:57.959Z,63.48
2018-11-20T14:19:57.956Z,63.64
2018-11-20T14:20:57.975Z,63.64
2018-11-20T14:21:58.022Z,63.64
2018-11-20T14:22:58.119Z,63.64
2018-11-20T14:24:58.151Z,63.48
2018-11-20T14:25:58.131Z,63.54
2018-11-20T14:26:58.164Z,63.45
2018-11-20T14:27:58.506Z,63.48
2018-11-20T14:28:58.275Z,63.48
2018-11-20T14:29:58.302Z,63.45
2018-11-20T14:30:58.636Z,63.54
2018-11-20T14:31:58.316Z,63.48
2018-11-20T14:32:58.405Z,63.35
2018-11-20T14:33:58.385Z,63.45
2018-11-20T14:34:58.535Z,63.45
2018-11-20T14:35:58.501Z,63.54